sensor_id;sensor_type;location;lat;lon;timestamp;temperature;humidity
78289;DHT22;67539;48.752;12.922;2024-01-30T00:00:22;-0.30;99.90
78289;DHT22;67539;48.752;12.922;2024-01-30T00:02:50;-0.30;99.90
78289;DHT22;67539;48.752;12.922;2024-01-30T00:05:19;-0.30;99.90
78289;DHT22;67539;48.752;12.922;2024-01-30T00:07:47;-0.40;99.90
78289;DHT22;67539;48.752;12.922;2024-01-30T00:10:17;-0.40;99.90
78289;DHT22;67539;48.752;12.922;2024-01-30T00:12:46;-0.40;99.90
78289;DHT22;67539;48.752;12.922;2024-01-30T00:15:14;-0.40;99.90
78289;DHT22;67539;48.752;12.922;2024-01-30T00:17:42;-0.40;99.90
78289;DHT22;67539;48.752;12.922;2024-01-30T00:20:11;-0.50;99.90
78289;DHT22;67539;48.752;12.922;2024-01-30T00:22:40;-0.50;99.90
78289;DHT22;67539;48.752;12.922;2024-01-30T00:25:08;-0.50;99.90
78289;DHT22;67539;48.752;12.922;2024-01-30T00:27:38;-0.50;99.90
78289;DHT22;67539;48.752;12.922;2024-01-30T00:30:07;-0.50;99.90
78289;DHT22;67539;48.752;12.922;2024-01-30T00:32:36;-0.50;99.90
78289;DHT22;67539;48.752;12.922;2024-01-30T00:35:05;-0.50;99.90
78289;DHT22;67539;48.752;12.922;2024-01-30T00:37:33;-0.50;99.90
78289;DHT22;67539;48.752;12.922;2024-01-30T00:40:02;-0.50;99.90
78289;DHT22;67539;48.752;12.922;2024-01-30T00:42:30;-0.60;99.90
78289;DHT22;67539;48.752;12.922;2024-01-30T00:45:00;-0.60;99.90
78289;DHT22;67539;48.752;12.922;2024-01-30T00:47:28;-0.60;99.90
78289;DHT22;67539;48.752;12.922;2024-01-30T00:49:57;-0.60;99.90
78289;DHT22;67539;48.752;12.922;2024-01-30T00:52:25;-0.60;99.90
78289;DHT22;67539;48.752;12.922;2024-01-30T00:54:54;-0.60;99.90
78289;DHT22;67539;48.752;12.922;2024-01-30T00:57:22;-0.70;99.90
78289;DHT22;67539;48.752;12.922;2024-01-30T01:49:30;-1.20;99.90
78289;DHT22;67539;48.752;12.922;2024-01-30T01:51:59;-1.20;99.90
78289;DHT22;67539;48.752;12.922;2024-01-30T01:54:29;-1.20;99.90
78289;DHT22;67539;48.752;12.922;2024-01-30T01:56:57;-1.20;99.90
78289;DHT22;67539;48.752;12.922;2024-01-30T01:59:26;-1.20;99.90
78289;DHT22;67539;48.752;12.922;2024-01-30T02:01:55;-1.20;99.90
78289;DHT22;67539;48.752;12.922;2024-01-30T02:04:24;-1.20;99.90
78289;DHT22;67539;48.752;12.922;2024-01-30T02:06:52;-1.20;99.90
78289;DHT22;67539;48.752;12.922;2024-01-30T02:09:21;-1.20;99.90
78289;DHT22;67539;48.752;12.922;2024-01-30T02:11:51;-1.30;99.90
78289;DHT22;67539;48.752;12.922;2024-01-30T02:14:20;-1.30;99.90
78289;DHT22;67539;48.752;12.922;2024-01-30T02:16:48;-1.30;99.90
78289;DHT22;67539;48.752;12.922;2024-01-30T02:19:17;-1.30;99.90
78289;DHT22;67539;48.752;12.922;2024-01-30T02:21:48;-1.30;99.90
78289;DHT22;67539;48.752;12.922;2024-01-30T02:24:18;-1.20;99.90
78289;DHT22;67539;48.752;12.922;2024-01-30T02:26:46;-1.20;99.90
78289;DHT22;67539;48.752;12.922;2024-01-30T02:29:14;-1.20;99.90
78289;DHT22;67539;48.752;12.922;2024-01-30T02:31:43;-1.20;99.90
78289;DHT22;67539;48.752;12.922;2024-01-30T02:34:13;-1.20;99.90
78289;DHT22;67539;48.752;12.922;2024-01-30T02:36:42;-1.30;99.90
78289;DHT22;67539;48.752;12.922;2024-01-30T02:39:12;-1.20;99.90
78289;DHT22;67539;48.752;12.922;2024-01-30T02:41:40;-1.30;99.90
78289;DHT22;67539;48.752;12.922;2024-01-30T02:44:09;-1.30;99.90
78289;DHT22;67539;48.752;12.922;2024-01-30T02:46:37;-1.30;99.90
78289;DHT22;67539;48.752;12.922;2024-01-30T02:49:05;-1.30;99.90
78289;DHT22;67539;48.752;12.922;2024-01-30T02:51:34;-1.30;99.90
78289;DHT22;67539;48.752;12.922;2024-01-30T02:54:02;-1.30;99.90
78289;DHT22;67539;48.752;12.922;2024-01-30T02:56:32;-1.30;99.90
78289;DHT22;67539;48.752;12.922;2024-01-30T02:59:00;-1.40;99.90
78289;DHT22;67539;48.752;12.922;2024-01-30T03:01:28;-1.40;99.90
78289;DHT22;67539;48.752;12.922;2024-01-30T03:03:57;-1.40;99.90
78289;DHT22;67539;48.752;12.922;2024-01-30T03:06:25;-1.40;99.90
78289;DHT22;67539;48.752;12.922;2024-01-30T03:08:54;-1.40;99.90
78289;DHT22;67539;48.752;12.922;2024-01-30T06:32:31;-2.30;99.90
78289;DHT22;67539;48.752;12.922;2024-01-30T06:35:01;-2.30;99.90
78289;DHT22;67539;48.752;12.922;2024-01-30T06:37:30;-2.40;99.90
78289;DHT22;67539;48.752;12.922;2024-01-30T06:39:58;-2.40;99.90
78289;DHT22;67539;48.752;12.922;2024-01-30T06:42:28;-2.30;99.90
78289;DHT22;67539;48.752;12.922;2024-01-30T06:44:56;-2.40;99.90
78289;DHT22;67539;48.752;12.922;2024-01-30T06:47:25;-2.40;99.90
78289;DHT22;67539;48.752;12.922;2024-01-30T06:49:53;-2.40;99.90
78289;DHT22;67539;48.752;12.922;2024-01-30T07:02:17;-2.40;99.90
78289;DHT22;67539;48.752;12.922;2024-01-30T07:07:15;-2.40;99.90
78289;DHT22;67539;48.752;12.922;2024-01-30T07:09:44;-2.30;99.90
78289;DHT22;67539;48.752;12.922;2024-01-30T07:12:12;-2.30;99.90
78289;DHT22;67539;48.752;12.922;2024-01-30T07:14:41;-2.30;99.90
78289;DHT22;67539;48.752;12.922;2024-01-30T07:17:10;-2.30;99.90
78289;DHT22;67539;48.752;12.922;2024-01-30T07:19:39;-2.20;99.90
78289;DHT22;67539;48.752;12.922;2024-01-30T07:22:08;-2.20;99.90
78289;DHT22;67539;48.752;12.922;2024-01-30T07:24:36;-2.10;99.90
78289;DHT22;67539;48.752;12.922;2024-01-30T07:27:11;-2.10;99.90
78289;DHT22;67539;48.752;12.922;2024-01-30T07:29:40;-2.00;99.90
78289;DHT22;67539;48.752;12.922;2024-01-30T07:32:10;-2.00;99.90
78289;DHT22;67539;48.752;12.922;2024-01-30T07:34:39;-1.90;99.90
78289;DHT22;67539;48.752;12.922;2024-01-30T07:37:24;-1.90;99.90
78289;DHT22;67539;48.752;12.922;2024-01-30T07:39:53;-1.80;99.90
78289;DHT22;67539;48.752;12.922;2024-01-30T07:42:21;-1.80;99.90
78289;DHT22;67539;48.752;12.922;2024-01-30T07:44:49;-1.70;99.90
78289;DHT22;67539;48.752;12.922;2024-01-30T07:47:19;-1.70;99.90
78289;DHT22;67539;48.752;12.922;2024-01-30T07:49:48;-1.60;99.90
78289;DHT22;67539;48.752;12.922;2024-01-30T07:52:17;-1.50;99.90
78289;DHT22;67539;48.752;12.922;2024-01-30T07:54:45;-1.50;99.90
78289;DHT22;67539;48.752;12.922;2024-01-30T07:57:13;-1.40;99.90
78289;DHT22;67539;48.752;12.922;2024-01-30T07:59:42;-1.40;99.90
78289;DHT22;67539;48.752;12.922;2024-01-30T08:02:12;-1.30;99.90
78289;DHT22;67539;48.752;12.922;2024-01-30T08:04:42;-1.20;99.90
78289;DHT22;67539;48.752;12.922;2024-01-30T08:07:11;-1.10;99.90
78289;DHT22;67539;48.752;12.922;2024-01-30T08:09:39;-1.10;99.90
78289;DHT22;67539;48.752;12.922;2024-01-30T08:12:08;-1.00;99.90
78289;DHT22;67539;48.752;12.922;2024-01-30T08:14:36;-0.90;99.90
78289;DHT22;67539;48.752;12.922;2024-01-30T08:17:04;-0.80;99.90
78289;DHT22;67539;48.752;12.922;2024-01-30T08:19:34;-0.70;99.90
78289;DHT22;67539;48.752;12.922;2024-01-30T08:22:04;-0.60;99.90
78289;DHT22;67539;48.752;12.922;2024-01-30T08:24:33;-0.50;99.90
78289;DHT22;67539;48.752;12.922;2024-01-30T08:27:01;-0.40;99.90
78289;DHT22;67539;48.752;12.922;2024-01-30T08:29:32;-0.40;99.90
78289;DHT22;67539;48.752;12.922;2024-01-30T08:32:00;-0.30;99.90
78289;DHT22;67539;48.752;12.922;2024-01-30T08:34:28;-0.20;99.90
78289;DHT22;67539;48.752;12.922;2024-01-30T08:36:57;-0.10;99.90
78289;DHT22;67539;48.752;12.922;2024-01-30T08:39:26;0.00;99.90
78289;DHT22;67539;48.752;12.922;2024-01-30T08:41:55;0.10;99.90
78289;DHT22;67539;48.752;12.922;2024-01-30T08:44:23;0.20;99.90
78289;DHT22;67539;48.752;12.922;2024-01-30T08:46:52;0.30;99.90
78289;DHT22;67539;48.752;12.922;2024-01-30T08:49:23;0.40;99.90
78289;DHT22;67539;48.752;12.922;2024-01-30T08:51:51;0.50;99.90
78289;DHT22;67539;48.752;12.922;2024-01-30T08:54:20;0.60;99.90
78289;DHT22;67539;48.752;12.922;2024-01-30T08:56:49;0.60;99.90
78289;DHT22;67539;48.752;12.922;2024-01-30T08:59:19;0.80;99.90
78289;DHT22;67539;48.752;12.922;2024-01-30T09:01:48;0.80;99.90
78289;DHT22;67539;48.752;12.922;2024-01-30T09:04:29;0.90;99.90
78289;DHT22;67539;48.752;12.922;2024-01-30T09:08:11;1.00;99.90
78289;DHT22;67539;48.752;12.922;2024-01-30T09:11:54;1.10;99.90
78289;DHT22;67539;48.752;12.922;2024-01-30T09:15:36;1.20;99.90
78289;DHT22;67539;48.752;12.922;2024-01-30T11:53:14;5.60;99.90
78289;DHT22;67539;48.752;12.922;2024-01-30T11:55:49;5.60;99.90
78289;DHT22;67539;48.752;12.922;2024-01-30T11:58:18;5.70;99.90
78289;DHT22;67539;48.752;12.922;2024-01-30T12:00:53;5.70;99.90
78289;DHT22;67539;48.752;12.922;2024-01-30T12:03:24;5.80;99.90
78289;DHT22;67539;48.752;12.922;2024-01-30T12:05:56;5.80;99.90
78289;DHT22;67539;48.752;12.922;2024-01-30T12:08:26;5.90;99.90
78289;DHT22;67539;48.752;12.922;2024-01-30T12:10:58;6.00;99.90
78289;DHT22;67539;48.752;12.922;2024-01-30T12:13:29;6.00;99.90
78289;DHT22;67539;48.752;12.922;2024-01-30T12:16:00;6.10;99.90
78289;DHT22;67539;48.752;12.922;2024-01-30T12:18:29;6.20;99.90
78289;DHT22;67539;48.752;12.922;2024-01-30T12:20:58;6.20;99.90
78289;DHT22;67539;48.752;12.922;2024-01-30T12:23:28;6.20;99.90
78289;DHT22;67539;48.752;12.922;2024-01-30T12:25:57;6.30;99.90
78289;DHT22;67539;48.752;12.922;2024-01-30T12:35:56;6.50;99.90
78289;DHT22;67539;48.752;12.922;2024-01-30T12:38:31;6.60;99.90
78289;DHT22;67539;48.752;12.922;2024-01-30T12:40:59;6.60;99.90
78289;DHT22;67539;48.752;12.922;2024-01-30T12:43:28;6.70;99.90
78289;DHT22;67539;48.752;12.922;2024-01-30T12:46:05;6.70;99.90
78289;DHT22;67539;48.752;12.922;2024-01-30T12:48:33;6.80;99.90
78289;DHT22;67539;48.752;12.922;2024-01-30T12:51:02;6.80;99.90
78289;DHT22;67539;48.752;12.922;2024-01-30T12:53:32;6.90;99.90
78289;DHT22;67539;48.752;12.922;2024-01-30T12:56:01;6.90;99.90
78289;DHT22;67539;48.752;12.922;2024-01-30T12:58:29;7.00;99.90
78289;DHT22;67539;48.752;12.922;2024-01-30T13:00:57;7.00;99.90
78289;DHT22;67539;48.752;12.922;2024-01-30T13:03:26;7.10;99.90
78289;DHT22;67539;48.752;12.922;2024-01-30T13:05:55;7.20;99.90
78289;DHT22;67539;48.752;12.922;2024-01-30T13:08:23;7.30;99.90
78289;DHT22;67539;48.752;12.922;2024-01-30T13:10:53;7.40;99.90
78289;DHT22;67539;48.752;12.922;2024-01-30T13:13:21;7.50;99.90
78289;DHT22;67539;48.752;12.922;2024-01-30T13:15:49;7.60;99.90
78289;DHT22;67539;48.752;12.922;2024-01-30T13:18:17;7.60;99.90
